Time;durP1;ratioP1;P1;durP2;ratioP2;P2;SDS_P1;SDS_P2;PMS_P1;PMS_P2;Temp;Humidity;BMP_temperature;BMP_pressure;BME280_temperature;BME280_humidity;BME280_pressure;Samples;Min_cycle;Max_cycle;Signal;HPM_P1;HPM_P2
2022/02/01 00:02:06;;;;;;;13.40;2.38;;;;;;;3.63;82.33;102063.66;5055008;28;20523;-61
2022/02/01 00:04:38;;;;;;;14.18;1.77;;;;;;;3.61;82.57;102069.69;5055507;28;20020;-62
2022/02/01 00:07:22;;;;;;;14.43;2.20;;;;;;;3.54;82.61;102071.06;5054935;28;20441;-62
2022/02/01 00:10:01;;;;;;;;;;;;;;;3.54;82.68;102065.94;5055878;28;20023;-61
2022/02/01 00:12:42;;;;;;;15.93;2.15;;;;;;;3.51;83.72;102057.66;5055063;28;19908;-62
2022/02/01 00:20:23;;;;;;;9.48;2.40;;;;;;;3.44;83.82;102070.06;5054218;28;20488;-61
2022/02/01 00:33:47;;;;;;;17.40;3.22;;;;;;;3.55;83.71;102087.22;5054818;28;20102;-62
2022/02/01 00:38:59;;;;;;;18.73;2.78;;;;;;;3.53;84.38;102089.03;5054657;28;20362;-62
2022/02/01 00:41:30;;;;;;;17.48;2.33;;;;;;;3.65;84.16;102080.50;5036384;28;20052;-61
2022/02/01 00:43:55;;;;;;;10.45;1.88;;;;;;;3.76;82.56;102074.63;5054186;28;20138;-62
2022/02/01 00:46:21;;;;;;;11.82;1.95;;;;;;;3.72;83.44;102063.81;5036306;28;20020;-62
2022/02/01 00:48:46;;;;;;;13.02;2.45;;;;;;;3.63;83.18;102041.47;5054660;28;20029;-61
2022/02/01 00:51:12;;;;;;;14.32;2.28;;;;;;;3.74;82.64;102041.50;5054015;28;20047;-62
2022/02/01 00:53:42;;;;;;;19.90;2.33;;;;;;;3.74;83.31;102020.22;5036031;28;20081;-63
2022/02/01 00:56:09;;;;;;;13.15;1.92;;;;;;;3.88;81.83;101994.44;5053902;28;20021;-62
2022/02/01 00:58:34;;;;;;;15.90;2.75;;;;;;;3.83;82.13;101999.94;5036104;28;20032;-62
2022/02/01 01:01:00;;;;;;;18.42;2.75;;;;;;;3.77;82.52;102015.72;5053861;28;20025;-62
2022/02/01 01:03:25;;;;;;;12.98;2.05;;;;;;;3.73;82.29;102019.41;5035953;28;20021;-62
2022/02/01 01:05:50;;;;;;;12.38;2.13;;;;;;;3.82;83.54;102021.28;5053710;28;20108;-62
2022/02/01 01:08:16;;;;;;;15.15;2.28;;;;;;;3.83;82.40;102029.81;5035788;28;20032;-62
2022/02/01 01:10:42;;;;;;;19.75;2.25;;;;;;;3.85;83.63;102040.72;5053753;28;20021;-61
2022/02/01 01:13:32;;;;;;;10.55;1.85;;;;;;;3.83;82.09;102063.03;5053584;28;20476;-63
2022/02/01 01:16:07;;;;;;;10.88;2.17;;;;;;;3.93;82.40;102065.72;5053245;28;20048;-62
2022/02/01 01:38:53;;;;;;;9.32;1.58;;;;;;;3.89;81.70;102029.34;5053869;28;20142;-62
2022/02/01 01:54:04;;;;;;;11.30;1.42;;;;;;;4.22;80.86;102063.59;5053707;28;20060;-62
2022/02/01 01:56:38;;;;;;;8.80;1.30;;;;;;;4.20;80.13;102039.84;5053200;28;20052;-63
2022/02/01 01:59:05;;;;;;;16.02;1.58;;;;;;;4.25;79.90;102025.78;5035906;28;20467;-64
2022/02/01 02:01:32;;;;;;;10.57;1.90;;;;;;;4.16;80.83;102036.72;5053038;28;20028;-62
2022/02/01 02:03:58;;;;;;;14.27;1.48;;;;;;;4.17;81.28;102053.72;5053116;28;20017;-62
2022/02/01 02:06:24;;;;;;;15.07;2.00;;;;;;;4.18;81.00;102054.53;5035163;28;20147;-61
2022/02/01 02:08:52;;;;;;;17.00;1.92;;;;;;;4.28;80.74;102052.91;5035174;28;20036;-62
2022/02/01 02:16:41;;;;;;;16.52;2.00;;;;;;;4.25;81.19;102036.03;5053181;28;20056;-62
2022/02/01 02:19:08;;;;;;;10.98;2.10;;;;;;;4.27;81.57;102030.81;5035172;28;20017;-61
2022/02/01 02:21:34;;;;;;;14.55;2.05;;;;;;;4.23;80.70;102029.38;5052904;28;20100;-62
2022/02/01 02:23:59;;;;;;;13.00;1.70;;;;;;;4.35;80.17;102023.38;5052878;28;20028;-64
2022/02/01 02:26:25;;;;;;;13.00;1.73;;;;;;;4.26;80.40;102017.19;5052913;28;20107;-61
2022/02/01 02:28:50;;;;;;;12.85;2.15;;;;;;;4.24;80.50;102005.44;5035003;28;20029;-62
2022/02/01 02:31:18;;;;;;;11.13;1.55;;;;;;;4.20;81.98;102019.38;5053152;28;20380;-61
2022/02/01 02:33:44;;;;;;;14.65;1.73;;;;;;;4.19;81.30;102007.53;5052737;28;20053;-61
2022/02/01 02:36:15;;;;;;;14.77;1.77;;;;;;;4.12;82.18;102009.75;5052832;28;20460;-61
2022/02/01 02:41:31;;;;;;;10.40;2.45;;;;;;;4.15;83.02;102011.25;5052938;28;20483;-62
2022/02/01 02:46:44;;;;;;;13.45;2.35;;;;;;;4.30;82.07;102015.22;5057261;28;20601;-61
2022/02/01 02:49:13;;;;;;;11.15;1.30;;;;;;;4.30;81.98;102010.09;5056366;28;20021;-62
2022/02/01 02:51:39;;;;;;;14.80;1.90;;;;;;;4.30;81.56;102016.03;5056667;28;20024;-62
2022/02/01 02:54:10;;;;;;;16.60;2.38;;;;;;;4.22;82.13;102005.53;5056432;28;20032;-62
2022/02/01 02:56:36;;;;;;;10.73;2.00;;;;;;;4.18;82.33;102005.91;5056330;28;20056;-63
2022/02/01 02:59:02;;;;;;;12.80;1.80;;;;;;;4.24;82.72;102000.31;5056268;28;20029;-66
2022/02/01 03:01:28;;;;;;;14.38;2.00;;;;;;;4.23;82.45;101991.00;5038229;28;20020;-63
2022/02/01 03:03:54;;;;;;;17.77;1.85;;;;;;;4.24;82.78;101980.66;5056675;28;20032;-63
2022/02/01 03:06:19;;;;;;;12.70;1.98;;;;;;;4.17;83.25;101955.66;5056050;28;20487;-63
2022/02/01 03:08:44;;;;;;;16.77;1.98;;;;;;;4.14;82.51;101945.66;5038116;28;20090;-62
2022/02/01 03:11:13;;;;;;;19.60;2.20;;;;;;;4.26;83.97;101960.91;5055959;28;20025;-62
2022/02/01 03:13:42;;;;;;;16.05;2.25;;;;;;;4.27;83.17;101948.91;5037973;28;20029;-62
2022/02/01 03:16:15;;;;;;;18.67;2.20;;;;;;;4.37;82.88;101946.47;5055754;28;20059;-62
2022/02/01 03:21:24;;;;;;;12.32;2.00;;;;;;;4.42;82.27;101926.44;5055908;28;20043;-63
2022/02/01 03:23:50;;;;;;;14.80;2.25;;;;;;;4.38;82.24;101919.94;5055867;28;20542;-63
2022/02/01 03:26:15;;;;;;;15.40;3.20;;;;;;;4.39;82.70;101919.00;5037813;28;20056;-63
2022/02/01 03:28:41;;;;;;;18.50;3.20;;;;;;;4.42;82.70;101905.97;5037849;28;20020;-62
2022/02/01 03:31:06;;;;;;;17.17;2.60;;;;;;;4.41;82.26;101904.34;5055652;28;20028;-63
2022/02/01 03:33:31;;;;;;;12.27;2.72;;;;;;;4.38;82.62;101919.94;5055451;28;20107;-62
2022/02/01 03:35:57;;;;;;;14.48;2.42;;;;;;;4.39;82.70;101912.13;5055620;28;20040;-62
2022/02/01 03:38:22;;;;;;;14.40;2.30;;;;;;;4.44;82.33;101904.94;5037661;28;20111;-63
2022/02/01 03:40:48;;;;;;;12.52;2.08;;;;;;;4.41;83.05;101900.03;5055523;28;20403;-62
2022/02/01 03:43:13;;;;;;;17.15;2.67;;;;;;;4.40;83.74;101892.47;5037632;28;20490;-63
2022/02/01 03:45:38;;;;;;;15.98;2.45;;;;;;;4.41;83.21;101887.25;5055400;28;20460;-62
2022/02/01 03:48:04;;;;;;;12.80;1.95;;;;;;;4.38;83.66;101881.56;5055400;28;20028;-63
2022/02/01 03:50:29;;;;;;;19.23;2.38;;;;;;;4.45;83.20;101870.72;5055527;28;20024;-62
2022/02/01 03:52:54;;;;;;;17.02;1.95;;;;;;;4.48;83.36;101874.78;5037240;28;20061;-62
2022/02/01 03:55:20;;;;;;;18.58;2.40;;;;;;;4.49;82.77;101869.56;5054809;28;20063;-61
2022/02/01 03:57:46;;;;;;;14.68;2.42;;;;;;;4.44;82.74;101868.28;5037374;28;20074;-62
2022/02/01 04:00:12;;;;;;;20.45;2.30;;;;;;;4.47;82.94;101868.03;5037301;28;20360;-62
2022/02/01 04:02:37;;;;;;;14.43;2.22;;;;;;;4.44;83.75;101873.41;5055012;28;20029;-62
2022/02/01 04:05:03;;;;;;;15.73;2.95;;;;;;;4.48;82.44;101877.34;5037230;28;20021;-62
2022/02/01 04:07:28;;;;;;;16.05;2.45;;;;;;;4.46;83.54;101876.63;5055323;28;20033;-62
2022/02/01 04:09:54;;;;;;;19.13;2.90;;;;;;;4.51;82.81;101866.84;5055046;28;20392;-62
2022/02/01 04:12:19;;;;;;;14.82;2.38;;;;;;;4.45;83.10;101872.47;5054891;28;20068;-62
2022/02/01 04:14:46;;;;;;;14.05;2.30;;;;;;;4.54;83.05;101881.97;5036827;28;20029;-62
2022/02/01 04:17:12;;;;;;;20.27;2.78;;;;;;;4.52;82.96;101887.22;5054577;28;20488;-62
2022/02/01 04:19:38;;;;;;;14.57;2.33;;;;;;;4.55;83.43;101886.19;5054630;28;20017;-62
2022/02/01 04:22:05;;;;;;;15.57;2.20;;;;;;;4.50;82.99;101876.28;5054940;28;20025;-62
2022/02/01 04:24:37;;;;;;;16.88;2.63;;;;;;;4.59;83.40;101886.75;5054565;28;20086;-61
2022/02/01 04:27:03;;;;;;;16.88;2.58;;;;;;;4.57;82.85;101888.59;5054789;28;20021;-62
2022/02/01 04:29:28;;;;;;;14.25;2.95;;;;;;;4.58;83.20;101880.00;5036603;28;20061;-63
2022/02/01 04:31:54;;;;;;;20.33;3.03;;;;;;;4.59;83.40;101868.81;5054485;28;20067;-62
2022/02/01 04:34:20;;;;;;;18.05;2.47;;;;;;;4.59;84.09;101866.25;5054401;28;20113;-62
2022/02/01 04:36:45;;;;;;;13.55;2.88;;;;;;;4.54;84.06;101869.16;5054396;28;20482;-62
2022/02/01 04:39:11;;;;;;;13.40;2.33;;;;;;;4.55;84.08;101875.94;5054296;28;20025;-61
2022/02/01 04:41:37;;;;;;;20.65;3.45;;;;;;;4.55;83.67;101878.50;5054281;28;20020;-63
2022/02/01 04:44:03;;;;;;;11.15;2.42;;;;;;;4.69;83.53;101882.50;5036423;28;20024;-61
2022/02/01 04:46:29;;;;;;;13.18;2.42;;;;;;;4.67;82.93;101879.28;5036265;28;20472;-62
2022/02/01 04:49:01;;;;;;;19.90;2.53;;;;;;;4.66;83.12;101875.91;5054147;28;20082;-61
2022/02/01 04:51:27;;;;;;;10.45;2.38;;;;;;;4.69;82.98;101859.47;5036256;28;20061;-62
2022/02/01 04:53:53;;;;;;;14.30;2.60;;;;;;;4.63;82.91;101839.47;5054050;28;20107;-62
2022/02/01 04:56:18;;;;;;;18.00;2.72;;;;;;;4.68;82.89;101820.25;5054261;28;20059;-61
2022/02/01 04:58:45;;;;;;;13.85;2.38;;;;;;;4.68;82.66;101807.44;5054464;28;20033;-62
2022/02/01 05:01:13;;;;;;;15.18;3.08;;;;;;;4.68;83.40;101796.38;5053939;28;20025;-61
2022/02/01 05:03:38;;;;;;;23.73;3.83;;;;;;;4.70;82.65;101786.84;5054432;28;20025;-62
2022/02/01 05:06:04;;;;;;;20.08;2.40;;;;;;;4.72;83.11;101778.09;5035881;28;20123;-62
2022/02/01 05:08:30;;;;;;;10.13;2.50;;;;;;;4.71;82.62;101791.03;5053777;28;20025;-62
2022/02/01 05:10:56;;;;;;;15.63;2.42;;;;;;;4.65;82.60;101784.66;5053777;28;20024;-61
2022/02/01 05:18:29;;;;;;;10.55;2.45;;;;;;;4.59;84.18;101743.38;5053989;28;20087;-62
2022/02/01 05:21:10;;;;;;;15.45;2.70;;;;;;;4.61;83.94;101728.72;5054134;28;20382;-62
2022/02/01 05:23:35;;;;;;;13.73;2.53;;;;;;;4.58;84.74;101734.06;5053601;28;20033;-61
2022/02/01 05:26:02;;;;;;;16.15;2.72;;;;;;;4.52;85.26;101754.13;5053572;28;20024;-62
2022/02/01 05:28:27;;;;;;;20.55;3.30;;;;;;;4.55;85.74;101747.94;5054036;28;20029;-62
2022/02/01 05:30:58;;;;;;;18.00;2.72;;;;;;;4.53;85.58;101755.72;5053493;28;20071;-61
2022/02/01 05:33:24;;;;;;;13.00;2.88;;;;;;;4.60;85.43;101750.91;5035587;28;20017;-62
2022/02/01 05:35:49;;;;;;;15.13;2.95;;;;;;;4.62;85.72;101750.81;5053403;28;20036;-62
2022/02/01 05:38:14;;;;;;;19.20;3.35;;;;;;;4.59;86.73;101739.06;5053384;28;20060;-62
2022/02/01 05:40:39;;;;;;;17.88;3.40;;;;;;;4.68;86.83;101727.25;5053818;28;20138;-62
2022/02/01 05:43:10;;;;;;;16.02;3.63;;;;;;;4.74;86.54;101714.75;5035461;28;20062;-61
2022/02/01 05:45:37;;;;;;;23.05;3.17;;;;;;;4.74;87.13;101712.19;5035471;28;20024;-61
2022/02/01 05:48:03;;;;;;;20.05;3.83;;;;;;;4.74;87.11;101704.50;5053309;28;20104;-61
2022/02/01 05:50:30;;;;;;;18.02;3.53;;;;;;;4.70;88.81;101699.78;5053248;28;20151;-62
2022/02/01 05:52:56;;;;;;;23.95;3.78;;;;;;;4.66;89.81;101695.84;5053177;28;20025;-61
2022/02/01 05:55:22;;;;;;;24.17;4.45;;;;;;;4.69;90.39;101690.47;5053085;28;20029;-62
2022/02/01 05:57:47;;;;;;;20.95;4.28;;;;;;;4.72;91.23;101688.50;5053153;28;20055;-61
2022/02/01 06:00:14;;;;;;;17.30;4.18;;;;;;;4.69;91.04;101690.47;5053186;28;20025;-62
2022/02/01 06:02:39;;;;;;;19.48;4.40;;;;;;;4.69;91.53;101673.38;5053435;28;20025;-62
2022/02/01 06:05:05;;;;;;;20.58;4.72;;;;;;;4.76;91.88;101683.91;5053063;28;20025;-62
2022/02/01 06:07:30;;;;;;;20.58;5.18;;;;;;;4.69;91.82;101683.63;5053602;28;20436;-62
2022/02/01 06:09:56;;;;;;;20.58;5.82;;;;;;;4.68;92.80;101694.78;5053040;28;20024;-62
2022/02/01 06:12:21;;;;;;;22.65;5.88;;;;;;;4.78;92.25;101683.81;5053021;28;20485;-61
2022/02/01 06:14:46;;;;;;;24.88;5.72;;;;;;;4.72;93.20;101691.03;5053392;28;20037;-61
2022/02/01 06:17:12;;;;;;;29.35;6.30;;;;;;;4.79;93.32;101683.66;5054606;28;20072;-62
2022/02/01 06:19:37;;;;;;;24.67;6.00;;;;;;;4.72;93.95;101685.13;5056963;28;20032;-62
2022/02/01 06:22:04;;;;;;;26.02;6.63;;;;;;;4.66;94.62;101677.91;5056856;28;20028;-61
2022/02/01 06:24:31;;;;;;;26.98;6.80;;;;;;;4.68;95.03;101673.50;5039488;28;20033;-62
2022/02/01 06:26:56;;;;;;;24.45;6.35;;;;;;;4.72;94.70;101662.06;5056788;28;20491;-64
2022/02/01 06:29:22;;;;;;;22.85;6.32;;;;;;;4.73;95.25;101661.13;5038925;28;20017;-64
2022/02/01 06:31:47;;;;;;;21.02;6.72;;;;;;;4.69;95.43;101650.34;5038879;28;20025;-63
2022/02/01 06:34:12;;;;;;;14.80;5.32;;;;;;;4.67;95.25;101653.94;5056620;28;20025;-62
2022/02/01 06:36:37;;;;;;;25.20;6.18;;;;;;;4.65;96.05;101648.94;5038706;28;20017;-62
2022/02/01 06:39:07;;;;;;;26.27;6.07;;;;;;;4.59;96.41;101649.44;5056586;28;20025;-62
2022/02/01 06:41:32;;;;;;;20.30;6.15;;;;;;;4.55;95.73;101642.97;5038707;28;20419;-62
2022/02/01 06:43:58;;;;;;;21.92;5.25;;;;;;;4.53;96.29;101639.72;5056456;28;20036;-61
2022/02/01 06:46:23;;;;;;;18.98;6.00;;;;;;;4.55;96.81;101640.41;5056398;28;20024;-63
2022/02/01 06:48:48;;;;;;;23.48;6.05;;;;;;;4.59;96.19;101634.09;5056363;28;20021;-62
2022/02/01 06:51:17;;;;;;;19.67;5.90;;;;;;;4.59;96.54;101635.84;5038489;28;20082;-62
2022/02/01 06:53:45;;;;;;;21.52;5.95;;;;;;;4.59;96.77;101623.84;5056611;28;20021;-62
2022/02/01 06:56:18;;;;;;;20.35;5.82;;;;;;;4.66;96.62;101626.72;5038382;28;20032;-62
2022/02/01 06:58:44;;;;;;;28.42;7.03;;;;;;;4.71;96.94;101634.81;5056303;28;20033;-62
2022/02/01 07:01:09;;;;;;;23.30;8.13;;;;;;;4.77;97.28;101630.94;5038366;28;20053;-63
2022/02/01 07:03:35;;;;;;;20.95;7.80;;;;;;;4.76;96.74;101627.56;5056152;28;20028;-64
2022/02/01 07:06:00;;;;;;;26.58;7.90;;;;;;;4.75;96.70;101621.66;5038042;28;20059;-63
2022/02/01 07:08:25;;;;;;;21.80;7.93;;;;;;;4.80;96.68;101613.56;5056642;28;20372;-64
2022/02/01 07:10:51;;;;;;;25.65;8.50;;;;;;;4.81;97.06;101602.41;5038612;28;20383;-62
2022/02/01 07:13:17;;;;;;;25.98;8.82;;;;;;;4.80;97.67;101608.44;5038168;28;20361;-63
2022/02/01 07:15:42;;;;;;;27.38;8.85;;;;;;;4.79;97.22;101600.91;5037611;28;20052;-63
2022/02/01 07:18:07;;;;;;;26.05;9.65;;;;;;;4.83;97.36;101594.56;5036511;28;20032;-64
2022/02/01 07:20:33;;;;;;;34.22;9.77;;;;;;;4.80;98.06;101579.47;5055598;28;20032;-64
2022/02/01 07:22:59;;;;;;;28.35;8.95;;;;;;;4.92;98.11;101581.81;5054702;28;20048;-64
2022/02/01 07:27:51;;;;;;;22.30;9.35;;;;;;;5.05;98.14;101585.91;5054993;28;20036;-63
2022/02/01 07:30:24;;;;;;;26.13;9.70;;;;;;;5.12;97.95;101586.97;5035349;28;20063;-64
2022/02/01 07:32:50;;;;;;;;;;;;;;;5.20;97.64;101582.81;5054049;28;20470;-65
2022/02/01 07:35:16;;;;;;;32.00;10.00;;;;;;;5.30;98.18;101562.34;5053444;28;20310;-64
2022/02/01 07:37:42;;;;;;;21.98;8.68;;;;;;;5.27;98.43;101562.63;5053632;28;20448;-63
2022/02/01 07:40:09;;;;;;;19.23;9.23;;;;;;;5.34;98.65;101558.56;5053781;28;20079;-63
2022/02/01 07:42:35;;;;;;;21.92;8.50;;;;;;;5.40;98.36;101559.78;5052917;28;20028;-64
2022/02/01 07:45:03;;;;;;;18.08;8.02;;;;;;;5.42;98.76;101547.66;5054830;28;20017;-63
2022/02/01 07:47:29;;;;;;;26.65;8.00;;;;;;;5.53;98.90;101551.84;5037253;28;20040;-63
2022/02/01 07:49:54;;;;;;;24.23;7.60;;;;;;;5.54;98.75;101559.38;5037264;28;20032;-64
2022/02/01 07:52:20;;;;;;;21.23;8.07;;;;;;;5.64;99.06;101552.50;5055044;28;20025;-65
2022/02/01 07:54:46;;;;;;;16.88;6.45;;;;;;;5.66;98.66;101542.09;5054319;28;20031;-64
2022/02/01 07:57:12;;;;;;;18.55;6.13;;;;;;;5.72;98.72;101544.13;5055075;28;20155;-65
2022/02/01 07:59:37;;;;;;;14.77;5.70;;;;;;;5.74;98.63;101539.69;5054933;28;20067;-64
2022/02/01 08:02:04;;;;;;;19.45;5.53;;;;;;;5.73;98.48;101535.50;5036675;28;20067;-64
2022/02/01 08:04:33;;;;;;;12.55;5.22;;;;;;;5.78;98.86;101535.06;5054583;28;20067;-65
2022/02/01 08:06:59;;;;;;;17.08;4.50;;;;;;;5.85;98.71;101531.03;5054421;28;20021;-63
2022/02/01 08:09:32;;;;;;;13.18;4.57;;;;;;;5.85;98.91;101523.34;5054598;28;20029;-64
2022/02/01 08:11:57;;;;;;;10.93;3.88;;;;;;;5.92;99.01;101529.53;5055242;28;20024;-63
2022/02/01 08:17:24;;;;;;;12.10;3.72;;;;;;;5.86;98.70;101512.91;5054582;28;20053;-63
2022/02/01 08:19:59;;;;;;;11.52;4.10;;;;;;;5.88;99.49;101520.50;5054527;28;20029;-64
2022/02/01 08:25:08;;;;;;;6.95;3.47;;;;;;;5.94;99.12;101514.84;5054486;28;20494;-64
2022/02/01 08:27:34;;;;;;;11.20;3.33;;;;;;;5.95;98.82;101502.81;5054003;28;20028;-64
2022/02/01 08:30:03;;;;;;;4.88;3.22;;;;;;;6.04;98.74;101499.41;5052925;28;20341;-64
2022/02/01 08:32:29;;;;;;;5.07;3.22;;;;;;;6.00;98.95;101493.75;5052871;28;20571;-65
2022/02/01 08:34:54;;;;;;;5.88;3.15;;;;;;;6.05;98.65;101478.75;5035322;28;20035;-65
2022/02/01 08:37:20;;;;;;;6.35;3.20;;;;;;;6.03;99.05;101467.81;5035778;28;20032;-64
2022/02/01 08:39:46;;;;;;;7.20;3.10;;;;;;;6.07;99.39;101461.47;5035882;28;20457;-63
2022/02/01 08:42:11;;;;;;;4.43;2.90;;;;;;;6.12;98.92;101462.78;5036101;28;20112;-63
2022/02/01 08:44:37;;;;;;;4.18;2.70;;;;;;;6.11;98.98;101449.16;5054121;28;20467;-64
2022/02/01 08:47:04;;;;;;;3.60;2.70;;;;;;;6.17;99.29;101442.66;5054061;28;20119;-63
2022/02/01 08:49:29;;;;;;;5.13;2.80;;;;;;;6.27;98.95;101431.41;5054007;28;20100;-64
2022/02/01 08:52:06;;;;;;;7.13;2.70;;;;;;;6.19;98.99;101412.53;5053971;28;20060;-65
2022/02/01 08:54:34;;;;;;;3.33;2.45;;;;;;;6.23;99.01;101406.97;5054019;28;20032;-64
2022/02/01 08:59:45;;;;;;;4.85;2.50;;;;;;;6.27;98.52;101395.47;5053633;28;20602;-65
2022/02/01 09:02:14;;;;;;;5.18;2.83;;;;;;;6.38;98.86;101380.81;5052186;28;20029;-63
2022/02/01 09:04:40;;;;;;;4.35;2.55;;;;;;;6.37;99.02;101377.44;5052550;28;20058;-64
2022/02/01 09:07:05;;;;;;;9.25;2.88;;;;;;;6.33;98.50;101379.50;5052589;28;20104;-63
2022/02/01 09:09:32;;;;;;;9.60;2.50;;;;;;;6.37;99.22;101376.63;5053530;28;20120;-63
2022/02/01 09:11:57;;;;;;;5.82;2.63;;;;;;;6.47;98.88;101365.34;5035905;28;20375;-65
2022/02/01 09:14:22;;;;;;;5.57;2.53;;;;;;;6.46;98.76;101362.91;5053525;28;20104;-64
2022/02/01 09:16:48;;;;;;;7.88;2.67;;;;;;;6.44;98.95;101355.34;5032148;28;20041;-63
2022/02/01 09:19:14;;;;;;;6.07;2.85;;;;;;;6.48;99.22;101359.25;5033630;28;20049;-64
2022/02/01 09:21:40;;;;;;;5.72;2.38;;;;;;;6.50;98.82;101344.53;5033458;28;20026;-63
2022/02/01 09:24:06;;;;;;;8.27;2.72;;;;;;;6.58;98.92;101338.63;5033541;28;20480;-63
2022/02/01 09:26:32;;;;;;;6.15;2.40;;;;;;;6.56;98.87;101327.72;5033654;28;20025;-63
2022/02/01 09:28:58;;;;;;;8.43;2.92;;;;;;;6.57;99.03;101331.88;5032966;28;20079;-64
2022/02/01 09:31:23;;;;;;;7.13;2.60;;;;;;;6.55;99.40;101334.59;5031247;28;20037;-64
2022/02/01 09:33:48;;;;;;;5.90;2.50;;;;;;;6.61;99.19;101330.63;5033081;28;20113;-63
2022/02/01 09:36:14;;;;;;;10.18;2.90;;;;;;;6.67;98.90;101334.38;5033125;28;20407;-64
2022/02/01 09:38:39;;;;;;;7.70;2.70;;;;;;;6.64;98.89;101329.53;5031666;28;20040;-64
2022/02/01 09:41:05;;;;;;;9.80;2.72;;;;;;;6.57;99.52;101337.03;5031852;28;20047;-62
2022/02/01 09:43:31;;;;;;;4.97;2.55;;;;;;;6.75;98.80;101344.72;5033432;28;20049;-64
2022/02/01 09:45:58;;;;;;;7.07;2.40;;;;;;;6.65;98.98;101331.97;5031827;28;20025;-63
2022/02/01 09:48:23;;;;;;;6.47;2.47;;;;;;;6.72;98.80;101337.31;5031985;28;20021;-64
2022/02/01 09:50:50;;;;;;;8.80;2.78;;;;;;;6.68;99.22;101330.88;5030561;28;20067;-63
2022/02/01 09:53:17;;;;;;;11.20;3.15;;;;;;;6.71;99.25;101344.22;5029608;28;20052;-63
2022/02/01 09:55:42;;;;;;;6.03;3.20;;;;;;;6.74;99.35;101335.41;5028559;28;20097;-63
2022/02/01 09:58:11;;;;;;;7.03;2.58;;;;;;;6.81;98.96;101335.63;5026413;28;20112;-62
2022/02/01 10:00:47;;;;;;;8.80;2.78;;;;;;;6.77;98.91;101348.75;5027345;28;20025;-65
2022/02/01 10:03:18;;;;;;;8.30;3.10;;;;;;;6.81;99.09;101328.72;5029623;28;20032;-64
2022/02/01 10:05:45;;;;;;;10.57;3.30;;;;;;;6.89;99.39;101323.63;5029760;28;20531;-64
2022/02/01 10:08:13;;;;;;;9.07;2.92;;;;;;;6.85;99.10;101331.78;5029314;28;20025;-64
2022/02/01 10:10:38;;;;;;;5.72;2.72;;;;;;;6.89;99.29;101327.97;5030908;28;20028;-65
2022/02/01 10:13:16;;;;;;;8.77;3.30;;;;;;;7.00;98.93;101312.31;5028558;28;20025;-64
2022/02/01 10:16:40;;;;;;;14.40;3.50;;;;;;;7.03;98.91;101299.16;5029198;28;20042;-65
2022/02/01 10:18:46;;;;;;;10.02;3.20;;;;;;;7.07;98.78;101309.94;5025273;28;20112;-65
2022/02/01 10:21:15;;;;;;;9.70;3.25;;;;;;;7.07;98.95;101304.81;5031076;28;20548;-65
2022/02/01 10:23:42;;;;;;;14.23;3.67;;;;;;;7.12;98.51;101298.25;5031658;28;20043;-64
2022/02/01 10:26:09;;;;;;;12.30;3.88;;;;;;;7.11;98.58;101296.66;5032795;28;20029;-64
2022/02/01 10:29:06;;;;;;;10.75;3.35;;;;;;;7.17;98.60;101314.03;5032691;28;20029;-63
2022/02/01 10:31:45;;;;;;;11.55;3.42;;;;;;;7.20;99.06;101307.78;5031483;28;20365;-64
2022/02/01 10:37:01;;;;;;;19.33;3.83;;;;;;;7.24;98.67;101283.38;5033975;28;20037;-65
2022/02/01 10:39:27;;;;;;;;;;;;;;;7.33;98.29;101286.81;5033600;28;20104;-64
2022/02/01 10:42:12;;;;;;;13.07;3.90;;;;;;;7.34;99.01;101289.22;5031440;28;19917;-65
2022/02/01 10:44:43;;;;;;;12.95;4.82;;;;;;;7.33;99.02;101294.50;5031405;28;20017;-64
2022/02/01 10:47:11;;;;;;;16.10;4.00;;;;;;;7.27;99.48;101303.66;5032610;28;20033;-64
2022/02/01 10:49:37;;;;;;;14.02;3.83;;;;;;;7.32;98.74;101308.34;5032794;28;20051;-65
2022/02/01 10:52:13;;;;;;;16.25;4.50;;;;;;;7.37;98.69;101293.28;5031584;28;20510;-64
2022/02/01 10:54:41;;;;;;;14.05;4.07;;;;;;;7.36;98.52;101301.91;5032973;28;20037;-64
2022/02/01 10:57:08;;;;;;;19.25;4.53;;;;;;;7.47;98.48;101302.47;5032277;28;20029;-65
2022/02/01 10:59:34;;;;;;;13.20;3.85;;;;;;;7.47;97.98;101289.59;5033011;28;20075;-64
2022/02/01 11:02:00;;;;;;;15.73;3.92;;;;;;;7.49;98.56;101299.75;5032583;28;20108;-63
2022/02/01 11:04:37;;;;;;;16.95;4.15;;;;;;;7.49;98.55;101291.22;5036294;28;20096;-65
2022/02/01 11:07:03;;;;;;;17.63;3.55;;;;;;;7.61;98.87;101288.22;5036218;28;20056;-65
2022/02/01 11:09:33;;;;;;;11.73;3.80;;;;;;;7.56;98.25;101282.72;5036351;28;20049;-64
2022/02/01 11:12:08;;;;;;;21.60;5.25;;;;;;;7.51;98.76;101276.44;5036030;28;20025;-63
2022/02/01 11:14:40;;;;;;;13.82;4.15;;;;;;;7.60;97.89;101278.09;5034928;28;20516;-63
2022/02/01 11:17:07;;;;;;;15.80;3.83;;;;;;;7.54;98.40;101274.38;5052274;28;20088;-63
2022/02/01 11:19:44;;;;;;;15.20;3.88;;;;;;;7.61;98.51;101272.78;5037808;28;20098;-64
2022/02/01 11:22:18;;;;;;;19.70;4.25;;;;;;;7.50;98.83;101272.25;5037885;28;20075;-63
2022/02/01 11:24:51;;;;;;;20.85;4.40;;;;;;;7.55;98.54;101264.91;5037706;28;20432;-64
2022/02/01 11:27:26;;;;;;;20.15;4.35;;;;;;;7.61;98.69;101253.97;5037604;28;20082;-64
2022/02/01 11:32:31;;;;;;;22.10;4.35;;;;;;;7.59;97.97;101243.03;5055100;28;20059;-64
2022/02/01 11:35:04;;;;;;;19.25;4.50;;;;;;;7.75;97.69;101232.81;5037271;28;20039;-63
2022/02/01 11:37:30;;;;;;;18.25;3.88;;;;;;;7.74;97.33;101227.81;5037474;28;20028;-64
2022/02/01 11:39:56;;;;;;;22.95;4.38;;;;;;;7.73;97.16;101229.56;5055359;28;20459;-65
2022/02/01 11:42:29;;;;;;;24.73;4.45;;;;;;;7.78;97.26;101213.69;5037355;28;20426;-64
2022/02/01 11:45:05;;;;;;;21.08;4.18;;;;;;;7.69;96.67;101215.44;5055360;28;20057;-63
2022/02/01 11:47:35;;;;;;;23.77;4.25;;;;;;;7.76;96.76;101220.75;5053918;28;20510;-62
2022/02/01 11:50:14;;;;;;;18.35;4.38;;;;;;;7.80;97.53;101240.06;5054037;28;20364;-65
2022/02/01 11:52:47;;;;;;;19.95;4.20;;;;;;;7.78;96.98;101223.97;5054382;28;20495;-64
2022/02/01 11:55:14;;;;;;;17.45;4.28;;;;;;;7.87;96.81;101217.88;5054463;28;20472;-63
2022/02/01 11:57:43;;;;;;;27.45;4.00;;;;;;;7.87;96.91;101223.81;5035932;28;20599;-63
2022/02/01 12:00:19;;;;;;;19.80;3.25;;;;;;;7.90;96.67;101223.50;5037272;28;20467;-64
2022/02/01 12:02:50;;;;;;;17.50;3.55;;;;;;;7.95;96.26;101204.22;5055313;28;20097;-64
2022/02/01 12:05:29;;;;;;;20.00;3.42;;;;;;;7.93;95.90;101190.69;5036800;28;20057;-64
2022/02/01 12:08:15;;;;;;;17.77;3.60;;;;;;;7.91;95.84;101196.00;5036330;28;20033;-62
2022/02/01 12:10:46;;;;;;;16.15;3.70;;;;;;;7.99;95.25;101193.44;5054910;28;20108;-64
2022/02/01 12:13:14;;;;;;;10.80;3.72;;;;;;;8.01;95.41;101170.13;5036290;28;20078;-62
2022/02/01 12:15:42;;;;;;;18.33;3.55;;;;;;;7.99;95.81;101177.19;5035852;28;20132;-63
2022/02/01 12:18:41;;;;;;;20.52;3.25;;;;;;;8.12;95.38;101178.31;5055249;28;20028;-63
2022/02/01 12:21:17;;;;;;;14.30;4.00;;;;;;;8.10;95.59;101167.38;5036359;28;20020;-63
2022/02/01 12:23:48;;;;;;;16.98;3.90;;;;;;;8.16;95.83;101172.84;5036756;28;20525;-64
2022/02/01 12:26:27;;;;;;;16.63;3.90;;;;;;;8.13;95.46;101182.50;5054462;28;20021;-62
2022/02/01 12:28:54;;;;;;;23.52;4.30;;;;;;;8.11;95.84;101187.03;5036340;28;20025;-62
2022/02/01 12:31:21;;;;;;;19.23;3.85;;;;;;;8.13;95.56;101195.38;5054762;28;20418;-64
2022/02/01 12:33:51;;;;;;;17.45;3.90;;;;;;;8.18;95.44;101186.38;5054262;28;20487;-63
2022/02/01 12:36:21;;;;;;;19.08;3.50;;;;;;;8.23;95.27;101171.22;5054266;28;20418;-63
2022/02/01 12:38:49;;;;;;;16.20;3.92;;;;;;;8.23;95.21;101169.47;5054037;28;20024;-62
2022/02/01 12:41:18;;;;;;;18.63;3.80;;;;;;;8.21;93.95;101173.19;5054305;28;20104;-63
2022/02/01 12:48:55;;;;;;;16.45;3.78;;;;;;;8.28;94.67;101161.25;5055018;28;19912;-62
2022/02/01 12:51:21;;;;;;;17.90;3.67;;;;;;;8.32;93.84;101155.63;5053975;28;20540;-62
2022/02/01 12:53:48;;;;;;;14.90;3.65;;;;;;;8.31;94.09;101151.44;5053973;28;20555;-63
2022/02/01 12:56:21;;;;;;;13.98;3.90;;;;;;;8.32;94.79;101136.81;5053433;28;20483;-64
2022/02/01 12:59:00;;;;;;;17.23;3.40;;;;;;;8.36;94.93;101146.59;5035254;28;20048;-63
2022/02/01 13:01:37;;;;;;;16.90;3.47;;;;;;;8.40;93.93;101152.28;5052972;28;20067;-62
2022/02/01 13:04:04;;;;;;;19.70;2.95;;;;;;;8.39;94.16;101160.16;5052843;28;20033;-62